createdAt,value
2022-12-04T05:00:30.421Z,14.33
2022-12-04T05:04:33.114Z,15.48
2022-12-04T05:08:36.446Z,13.40
2022-12-04T05:12:39.106Z,14.52
2022-12-04T05:16:43.135Z,17.83
2022-12-04T05:20:45.725Z,12.82
2022-12-04T05:24:48.502Z,15.13
2022-12-04T05:28:51.218Z,15.05
2022-12-04T05:32:55.218Z,12.40
2022-12-04T05:36:57.924Z,14.82
2022-12-04T05:41:01.042Z,15.93
2022-12-04T05:45:03.729Z,20.08
2022-12-04T05:49:07.777Z,17.47
2022-12-04T05:53:10.454Z,15.82
2022-12-04T05:57:13.108Z,14.93
2022-12-04T06:01:17.651Z,14.53
2022-12-04T06:05:21.751Z,18.38
2022-12-04T06:09:24.538Z,16.95
2022-12-04T06:13:27.934Z,15.35
2022-12-04T06:17:30.679Z,17.98
2022-12-04T06:21:37.168Z,14.30
2022-12-04T06:25:39.820Z,18.80
2022-12-04T06:29:42.474Z,18.50
2022-12-04T06:33:45.383Z,16.87
2022-12-04T06:37:49.391Z,15.60
2022-12-04T06:41:52.003Z,16.20
2022-12-04T06:46:01.226Z,15.60
2022-12-04T06:50:04.458Z,17.17
2022-12-04T06:54:08.807Z,15.65
2022-12-04T06:58:11.475Z,15.90
2022-12-04T07:02:14.137Z,15.33
2022-12-04T07:06:19.437Z,15.53
2022-12-04T07:10:23.477Z,17.05
2022-12-04T07:14:26.208Z,18.70
2022-12-04T07:18:29.226Z,19.37
2022-12-04T07:22:31.835Z,18.00
2022-12-04T07:26:35.918Z,18.77
2022-12-04T07:30:39.274Z,16.73
2022-12-04T07:34:41.879Z,19.52
2022-12-04T07:38:44.925Z,20.80
2022-12-04T07:42:48.980Z,19.00
2022-12-04T07:46:51.635Z,23.08
2022-12-04T07:51:03.299Z,17.73
2022-12-04T07:55:07.248Z,19.05
2022-12-04T07:59:11.205Z,17.50
2022-12-04T08:03:13.858Z,18.10
2022-12-04T08:07:16.581Z,20.23
2022-12-04T08:11:22.190Z,21.07
2022-12-04T08:15:26.257Z,20.88
2022-12-04T08:19:28.942Z,19.25
2022-12-04T08:23:31.767Z,20.40
2022-12-04T08:27:34.597Z,23.10
2022-12-04T08:31:38.642Z,21.35
2022-12-04T08:35:41.310Z,20.33
2022-12-04T08:39:43.922Z,20.90
2022-12-04T08:43:46.629Z,21.23
2022-12-04T08:47:52.619Z,24.05
2022-12-04T08:51:55.475Z,24.95
2022-12-04T08:55:58.392Z,21.17
2022-12-04T09:00:01.653Z,20.92
2022-12-04T09:04:06.146Z,18.95
2022-12-04T09:08:09.292Z,20.88
2022-12-04T09:12:12.501Z,22.88
2022-12-04T09:16:17.586Z,26.10
2022-12-04T09:20:21.784Z,22.38
2022-12-04T09:24:24.422Z,24.00
2022-12-04T09:28:27.201Z,23.10
2022-12-04T09:32:29.822Z,23.80
2022-12-04T09:36:33.806Z,17.93
2022-12-04T09:40:44.140Z,26.35
2022-12-04T09:44:51.467Z,21.40
2022-12-04T09:48:57.083Z,21.30
2022-12-04T09:53:07.373Z,20.92
2022-12-04T09:57:18.048Z,19.63
2022-12-04T10:01:23.888Z,22.02
2022-12-04T10:05:38.972Z,22.27
2022-12-04T10:09:52.542Z,20.73
2022-12-04T10:14:07.103Z,24.60
2022-12-04T10:18:23.307Z,22.27
2022-12-04T10:22:34.468Z,18.05
2022-12-04T10:26:44.533Z,21.50
2022-12-04T10:30:49.257Z,16.27
2022-12-04T10:34:55.116Z,21.23
2022-12-04T10:39:00.532Z,20.25
2022-12-04T10:43:12.492Z,20.17
2022-12-04T10:47:15.447Z,16.92
2022-12-04T10:51:20.199Z,18.33
2022-12-04T10:55:30.521Z,19.95
2022-12-04T10:59:37.020Z,19.90
2022-12-04T11:03:40.445Z,18.85
2022-12-04T11:11:50.013Z,20.75
2022-12-04T11:15:55.906Z,17.98
2022-12-04T11:20:02.838Z,19.63
2022-12-04T11:24:05.996Z,20.80
2022-12-04T11:28:39.877Z,22.20
2022-12-04T11:32:42.081Z,19.30
2022-12-04T11:36:50.715Z,19.05
2022-12-04T11:40:56.039Z,21.73
2022-12-04T11:45:00.048Z,19.65
2022-12-04T11:49:04.353Z,19.95
2022-12-04T11:53:16.865Z,16.98
2022-12-04T11:57:29.536Z,18.75
2022-12-04T12:01:41.949Z,20.15
2022-12-04T12:06:07.042Z,19.65
2022-12-04T12:10:20.088Z,16.10
2022-12-04T12:14:31.366Z,20.40
2022-12-04T12:18:55.771Z,17.77
2022-12-04T12:23:24.585Z,20.92
2022-12-04T12:27:47.371Z,18.42
2022-12-04T12:32:09.888Z,18.15
2022-12-04T12:36:14.901Z,23.42
2022-12-04T12:40:30.137Z,19.55
2022-12-04T12:44:41.678Z,20.95
2022-12-04T12:48:57.969Z,22.17
2022-12-04T12:53:06.236Z,24.58
2022-12-04T12:57:15.794Z,22.20
2022-12-04T13:01:23.750Z,23.75
2022-12-04T13:05:31.217Z,20.27
2022-12-04T13:09:38.864Z,19.05
2022-12-04T13:13:47.123Z,17.88
2022-12-04T13:17:52.771Z,20.13
2022-12-04T13:22:07.771Z,22.10
2022-12-04T13:26:23.489Z,24.38
2022-12-04T13:30:37.943Z,22.02
2022-12-04T13:34:51.697Z,21.90
2022-12-04T13:39:19.826Z,23.48
2022-12-04T13:43:46.999Z,23.05
2022-12-04T13:47:58.133Z,23.40
2022-12-04T13:52:03.002Z,20.00
2022-12-04T13:56:10.324Z,21.73
2022-12-04T14:00:28.947Z,24.98
2022-12-04T14:04:41.367Z,20.77
2022-12-04T14:08:44.882Z,22.48
2022-12-04T14:16:56.072Z,20.65
2022-12-04T14:21:04.532Z,20.42
2022-12-04T14:25:35.737Z,23.48
2022-12-04T14:29:50.794Z,18.30
2022-12-04T14:33:57.941Z,23.95
2022-12-04T14:38:05.145Z,20.55
2022-12-04T14:42:14.801Z,21.40
2022-12-04T14:46:24.414Z,19.92
2022-12-04T14:50:35.147Z,19.13
2022-12-04T14:54:47.199Z,18.30
2022-12-04T14:58:50.370Z,21.80
2022-12-04T15:02:56.090Z,17.92
2022-12-04T15:07:00.731Z,17.45
2022-12-04T15:11:24.801Z,18.65
2022-12-04T15:23:37.272Z,19.88
2022-12-04T15:27:41.661Z,21.00
2022-12-04T15:31:50.245Z,21.58
2022-12-04T15:35:57.046Z,20.10
2022-12-04T15:40:00.523Z,24.63
2022-12-04T15:48:29.321Z,19.90
2022-12-04T15:52:32.004Z,19.08
2022-12-04T15:56:34.618Z,21.03
2022-12-04T16:00:42.430Z,20.60
2022-12-04T16:04:57.054Z,21.17
2022-12-04T16:09:01.649Z,21.15
2022-12-04T16:13:06.217Z,19.60
2022-12-04T16:17:11.689Z,23.63
2022-12-04T16:21:17.329Z,20.75
2022-12-04T16:25:20.079Z,22.08
2022-12-04T16:29:23.066Z,21.60
2022-12-04T16:33:27.043Z,19.77
2022-12-04T16:37:31.629Z,17.75
2022-12-04T16:41:34.298Z,20.52
2022-12-04T16:45:37.138Z,20.73
2022-12-04T16:49:41.895Z,25.13
2022-12-04T16:53:45.148Z,20.13
2022-12-04T16:57:48.133Z,19.02
2022-12-04T17:01:52.395Z,20.92
2022-12-04T17:05:57.394Z,18.58
2022-12-04T17:09:59.965Z,19.83
2022-12-04T17:14:06.953Z,18.77
2022-12-04T17:18:13.905Z,21.77
2022-12-04T17:22:23.112Z,19.70
2022-12-04T17:26:25.692Z,19.92
2022-12-04T17:30:32.873Z,20.90
2022-12-04T17:34:38.904Z,20.13
2022-12-04T17:38:43.249Z,19.05
2022-12-04T17:42:45.837Z,21.70
2022-12-04T17:46:48.493Z,23.07
2022-12-04T17:50:51.534Z,19.67
2022-12-04T17:54:55.859Z,17.40
2022-12-04T17:58:58.798Z,19.70
2022-12-04T18:03:02.511Z,19.27
2022-12-04T18:07:05.345Z,17.97
2022-12-04T18:11:09.672Z,14.38
2022-12-04T18:15:12.328Z,17.95
2022-12-04T18:19:15.940Z,19.67
2022-12-04T18:27:22.410Z,14.23
2022-12-04T18:31:25.316Z,16.33
2022-12-04T18:35:28.007Z,15.52
2022-12-04T18:39:30.739Z,16.10
2022-12-04T18:43:35.453Z,18.67
2022-12-04T18:47:38.071Z,18.70
2022-12-04T18:51:45.812Z,17.03
2022-12-04T18:55:52.177Z,15.50
2022-12-04T18:59:56.409Z,18.10
2022-12-04T19:04:01.326Z,16.55
2022-12-04T19:08:04.319Z,15.57
2022-12-04T19:12:07.365Z,13.40
2022-12-04T19:16:14.014Z,16.98
2022-12-04T19:20:18.135Z,15.38
2022-12-04T19:24:20.735Z,13.00
2022-12-04T19:28:23.426Z,17.57
2022-12-04T19:32:27.497Z,17.67
2022-12-04T19:36:32.919Z,12.30
2022-12-04T19:40:35.542Z,15.65
2022-12-04T19:44:53.780Z,18.63
2022-12-04T19:49:01.922Z,17.95
2022-12-04T19:53:04.979Z,14.15
2022-12-04T19:57:07.672Z,11.55
2022-12-04T20:01:13.096Z,13.57
2022-12-04T20:05:17.279Z,15.68
2022-12-04T20:09:21.975Z,15.20
2022-12-04T20:13:24.609Z,13.38
2022-12-04T20:17:28.919Z,14.10
2022-12-04T20:21:33.290Z,14.32
2022-12-04T20:25:36.441Z,11.50
2022-12-04T20:29:39.063Z,11.65
2022-12-04T20:33:41.986Z,18.47
2022-12-04T20:37:45.943Z,17.33
2022-12-04T20:41:48.853Z,14.85
2022-12-04T20:45:51.603Z,12.45
2022-12-04T20:49:54.538Z,16.48
2022-12-04T20:54:00.095Z,15.55
2022-12-04T20:58:02.688Z,15.15
2022-12-04T21:02:05.378Z,13.63
2022-12-04T21:06:13.233Z,9.27
2022-12-04T21:10:17.282Z,13.85
2022-12-04T21:14:39.351Z,12.13
2022-12-04T21:18:41.941Z,11.88
2022-12-04T21:22:44.781Z,13.13
2022-12-04T21:26:49.125Z,9.82
2022-12-04T21:30:51.818Z,10.68
2022-12-04T21:34:54.498Z,16.35
2022-12-04T21:38:58.249Z,12.50
2022-12-04T21:43:02.209Z,18.38
2022-12-04T21:47:05.013Z,15.02
2022-12-04T21:51:21.534Z,13.73
2022-12-04T21:55:31.201Z,15.82
2022-12-04T21:59:35.168Z,14.13
